Napoli, Italy

11:08 AM CEST on September 03, 2015 (GMT +0200)
Naples | | Change Station
CLOSE
Current Station
Personal Weather Station
Location: Naples, Campania
Elevation: 108 ft
Nearby Weather Stations

Elev 108 ft 40.84 °N, 14.25 °E | Updated 8 minutes ago

Partly Cloudy
Partly Cloudy
83.0 °F
Feels Like 84 °F
N
2.0
Wind Variable Wind from South
Gusts 10.0 mph

Today
High -- | Low -- °F
--% Chance of Precip.
Yesterday
High -- | Low -- °F
Precip. -- in
6:31 AM 7:32 PM
Waning Gibbous, 72% visible
Pressure 29.92 in
Visibility 4.3 miles
Clouds Few 2500 ft
Heat Index 84 °F
Dew Point 64 °F
Humidity 53%
Rainfall 0.00 in
Snow Depth Not available.
UV 6 out of 12
Pollen Not available.
Air Quality Not available.
Flu Activity Not available.
METAR LIRM 030855Z 24005KT 7000 FEW025 29/26 Q1013 RMK FEW VIS MIN 7000 WIND THR06 21006KT BLK WHT
Pressure 29.92 in
Visibility 4.3 miles
Clouds Few 2500 ft
Heat Index 84 °F
Dew Point 64 °F
Humidity 53%
Rainfall 0.00 in
Snow Depth Not available.
UV 6 out of 12
Pollen Not available.
Air Quality Not available.
Flu Activity Not available.
METAR LIRM 030855Z 24005KT 7000 FEW025 29/26 Q1013 RMK FEW VIS MIN 7000 WIND THR06 21006KT BLK WHT

10-Day Weather Forecast

×

Almanac

Astronomy

Sep. 03, 2015 Rise Set
Actual Time
Civil Twilight
Nautical Twilight
Astronomical Twilight
Moon
Length of Visible Light
Length of Day
Tomorrow will be .
, % of the Moon is Illuminated

Today's Extremes

Country Highs Country Lows

Community

WunderPhotos

Upload Photos

1,851,922 photos uploaded!

WunderBlogs® & News

Nearby

Air Quality

  Air Quality AQ Index Pollutant
Not available.

Snow Depth

Station Depth Elevation

Earthquake Activity

City Distance Mag. Time & Date
Minimum magnitude displayed is 2.5.

Coastal Water Temperatures

Place Temperature

Stations

Nearby Weather Stations

Station Location Temp. Windchill Dew Point Humidity Wind Precip. Elev Updated Type